Terminal Aerodrome Forecast
Issued by NWS Boston, MA

Current Version | Previous Version | Text Only | Print | Product List | Glossary On
Versions: 1 2 3 4 5 6 7 8 9 10 11 12 13 14 15 16 17 18 19 20 21 22 23 24 25 26 27 28 29 30 31 32 33 34 35 36 37 38 39 40 41 42 43 44 45 46 47 48 49 50
000 FTUS41 KBOX 261129 TAFBOS TAF KBOS 261129Z 2612/2718 31006KT P6SM FEW050 FEW250 FM261800 14007KT P6SM SKC FM262300 18009KT P6SM FEW150 FM270500 19008KT P6SM VCSH SCT140 FM270700 19008KT P6SM -RA BKN060 FM271200 19008KT 3SM BR VCSH OVC008 FM271500 23008KT P6SM OVC003 FM271700 25008KT P6SM BKN035=

USA.gov is the U.S. government's official web portal to all federal, state and local government web resources and services.